Time;durP1;ratioP1;P1;durP2;ratioP2;P2;SDS_P1;SDS_P2;PMS_P1;PMS_P2;Temp;Humidity;BMP_temperature;BMP_pressure;BME280_temperature;BME280_humidity;BME280_pressure;Samples;Min_cycle;Max_cycle;Signal;HPM_P1;HPM_P2
2022/10/06 00:01:55;;;;;;;8.95;2.13;;;17.90;99.90;;;;;;4997186;28;20020;-73
2022/10/06 00:04:20;;;;;;;8.88;2.05;;;17.70;99.90;;;;;;4996987;28;20025;-73
2022/10/06 00:06:46;;;;;;;6.25;2.03;;;17.50;99.90;;;;;;4996506;28;20048;-73
2022/10/06 00:09:11;;;;;;;7.75;2.95;;;17.30;99.90;;;;;;4996530;28;20030;-73
2022/10/06 00:11:37;;;;;;;3.42;2.17;;;17.10;99.90;;;;;;4996859;28;20064;-73
2022/10/06 00:14:02;;;;;;;3.20;2.08;;;17.00;99.90;;;;;;5014033;28;20025;-73
2022/10/06 00:16:28;;;;;;;6.57;2.33;;;16.90;99.90;;;;;;4996690;28;20037;-73
2022/10/06 00:18:55;;;;;;;10.55;2.05;;;16.90;99.90;;;;;;4996295;28;20038;-72
2022/10/06 00:21:21;;;;;;;4.68;2.20;;;16.70;99.90;;;;;;5014273;28;20101;-72
2022/10/06 00:23:46;;;;;;;8.07;2.63;;;16.70;99.90;;;;;;4996229;28;20190;-72
2022/10/06 00:26:16;;;;;;;6.40;2.38;;;16.60;99.90;;;;;;5014130;28;20100;-72
2022/10/06 00:28:47;;;;;;;5.15;2.60;;;16.60;99.90;;;;;;4996248;28;20125;-72
2022/10/06 00:31:14;;;;;;;3.45;2.47;;;16.50;99.90;;;;;;4996266;28;20028;-72
2022/10/06 00:33:40;;;;;;;8.77;2.45;;;16.50;99.90;;;;;;5013855;28;20033;-75
2022/10/06 00:36:06;;;;;;;6.30;2.50;;;16.40;99.90;;;;;;4996305;28;20026;-75
2022/10/06 00:38:32;;;;;;;15.43;2.50;;;16.40;99.90;;;;;;5013745;28;20025;-75
2022/10/06 00:40:57;;;;;;;5.15;2.30;;;16.40;99.90;;;;;;5013716;28;20037;-75
2022/10/06 00:43:48;;;;;;;6.03;2.03;;;16.40;99.90;;;;;;4996070;28;20156;-75
2022/10/06 00:46:29;;;;;;;4.45;2.20;;;16.40;99.90;;;;;;5013823;28;20025;-75
2022/10/06 00:49:03;;;;;;;9.82;2.30;;;16.40;99.90;;;;;;4996044;28;20021;-74
2022/10/06 00:51:30;;;;;;;5.90;2.35;;;16.40;99.90;;;;;;5013902;28;20029;-75
2022/10/06 00:53:56;;;;;;;8.88;2.78;;;16.40;99.90;;;;;;4996486;28;20026;-75
2022/10/06 00:56:23;;;;;;;9.23;2.88;;;16.50;99.90;;;;;;5013874;28;20022;-75
2022/10/06 00:58:49;;;;;;;6.93;2.15;;;16.70;99.90;;;;;;4996328;28;20026;-76
2022/10/06 01:01:15;;;;;;;3.67;1.98;;;16.90;99.90;;;;;;4996342;28;20022;-74
2022/10/06 01:03:56;;;;;;;5.82;2.20;;;17.00;99.90;;;;;;4995930;28;20048;-75
2022/10/06 01:06:22;;;;;;;2.92;1.63;;;17.00;99.90;;;;;;4995880;28;20042;-74
2022/10/06 01:08:48;;;;;;;3.58;1.83;;;17.00;99.90;;;;;;4996399;28;20022;-74
2022/10/06 01:11:13;;;;;;;4.30;1.20;;;17.00;99.90;;;;;;5013863;28;20359;-75
2022/10/06 01:13:43;;;;;;;8.35;1.45;;;17.00;99.90;;;;;;4996021;28;20080;-75
2022/10/06 01:16:20;;;;;;;2.95;1.00;;;17.00;99.90;;;;;;4996552;28;20032;-75
2022/10/06 01:18:46;;;;;;;3.88;1.10;;;17.00;99.90;;;;;;5013322;28;20406;-75
2022/10/06 01:21:37;;;;;;;3.40;0.60;;;17.10;99.90;;;;;;4995895;28;20436;-74
2022/10/06 01:24:03;;;;;;;1.95;0.50;;;17.10;99.90;;;;;;5013667;28;20030;-75
2022/10/06 01:26:31;;;;;;;1.77;0.60;;;17.10;99.90;;;;;;4996220;28;20029;-73
2022/10/06 01:28:56;;;;;;;4.07;0.77;;;17.20;99.90;;;;;;5060561;23;20190;-69
2022/10/06 01:31:22;;;;;;;1.65;0.68;;;17.20;99.90;;;;;;5057868;28;20021;-68
2022/10/06 01:33:53;;;;;;;1.73;0.60;;;17.20;99.90;;;;;;5053481;28;20060;-68
2022/10/06 01:36:19;;;;;;;1.63;0.70;;;17.20;99.90;;;;;;5035396;28;20068;-68
2022/10/06 01:38:45;;;;;;;5.65;0.50;;;17.20;99.90;;;;;;5040177;28;20034;-68
2022/10/06 01:41:10;;;;;;;1.33;0.47;;;17.20;99.90;;;;;;5016822;28;20026;-68
2022/10/06 01:43:36;;;;;;;5.97;0.73;;;17.20;99.90;;;;;;5015683;28;20053;-68
2022/10/06 01:46:01;;;;;;;2.47;0.60;;;17.20;99.90;;;;;;5017590;28;20080;-68
2022/10/06 01:48:27;;;;;;;1.85;0.50;;;17.10;99.90;;;;;;5023299;28;20030;-68
2022/10/06 01:50:53;;;;;;;2.78;0.55;;;17.10;99.90;;;;;;5016156;28;20042;-68
2022/10/06 01:53:19;;;;;;;1.20;0.30;;;17.00;99.90;;;;;;5015399;28;20112;-68
2022/10/06 01:55:45;;;;;;;5.07;0.70;;;17.00;99.90;;;;;;5032606;28;20171;-68
2022/10/06 01:58:11;;;;;;;4.82;0.70;;;16.90;99.90;;;;;;5032700;28;20051;-68
2022/10/06 02:00:38;;;;;;;3.72;0.50;;;16.90;99.90;;;;;;5014869;28;20030;-69
2022/10/06 02:03:03;;;;;;;5.57;0.57;;;16.80;99.90;;;;;;5015160;28;20026;-68
2022/10/06 02:05:29;;;;;;;10.43;0.65;;;16.80;99.90;;;;;;5015274;28;20075;-68
2022/10/06 02:07:55;;;;;;;2.15;0.70;;;16.80;99.90;;;;;;5032830;28;20091;-68
2022/10/06 02:10:20;;;;;;;2.70;0.40;;;16.80;99.90;;;;;;5018369;28;20048;-68
2022/10/06 02:12:50;;;;;;;2.00;0.40;;;16.80;99.90;;;;;;5018364;28;20032;-68
2022/10/06 02:15:16;;;;;;;1.50;0.60;;;16.70;99.90;;;;;;5018365;28;20030;-68
2022/10/06 02:17:42;;;;;;;3.33;0.50;;;16.70;99.90;;;;;;5018251;28;20072;-68
2022/10/06 02:20:08;;;;;;;1.77;0.57;;;16.70;99.90;;;;;;5018480;28;20028;-68
2022/10/06 02:22:38;;;;;;;0.90;0.32;;;16.60;99.90;;;;;;5035795;28;20029;-68
2022/10/06 02:25:04;;;;;;;2.90;0.40;;;16.60;99.90;;;;;;5018002;28;20029;-69
2022/10/06 02:27:29;;;;;;;1.40;0.45;;;16.60;99.90;;;;;;5018163;28;20029;-69
2022/10/06 02:29:55;;;;;;;0.82;0.40;;;16.60;99.90;;;;;;5020142;28;20029;-68
2022/10/06 02:32:20;;;;;;;1.38;0.45;;;16.50;99.90;;;;;;5023799;28;20029;-68
2022/10/06 02:34:46;;;;;;;1.42;0.35;;;16.50;99.90;;;;;;5021315;28;20038;-70
2022/10/06 02:37:12;;;;;;;0.77;0.52;;;16.50;99.90;;;;;;5021992;28;20025;-68
2022/10/06 02:39:37;;;;;;;1.50;0.40;;;16.50;99.90;;;;;;5018078;28;20032;-68
2022/10/06 02:42:04;;;;;;;1.60;0.40;;;16.60;99.90;;;;;;5017822;28;20029;-68
2022/10/06 02:44:29;;;;;;;2.08;0.40;;;16.60;99.90;;;;;;5036216;28;20084;-68
2022/10/06 02:46:55;;;;;;;0.90;0.38;;;16.60;99.90;;;;;;5017650;28;20076;-68
2022/10/06 02:49:20;;;;;;;1.50;0.50;;;16.60;99.90;;;;;;5017825;28;20093;-68
2022/10/06 02:51:46;;;;;;;0.43;0.40;;;16.60;99.90;;;;;;5035920;28;20021;-68
2022/10/06 02:54:11;;;;;;;1.38;0.50;;;16.60;99.90;;;;;;5035383;28;20121;-70
2022/10/06 02:56:37;;;;;;;4.90;0.40;;;16.60;99.90;;;;;;5017483;28;20026;-70
2022/10/06 02:59:03;;;;;;;3.15;0.65;;;16.70;99.90;;;;;;5018040;28;20017;-70
2022/10/06 03:01:29;;;;;;;3.47;0.73;;;16.60;99.90;;;;;;5017736;28;20025;-70
2022/10/06 03:03:55;;;;;;;1.60;0.60;;;16.60;99.90;;;;;;5035073;28;20022;-70
2022/10/06 03:06:23;;;;;;;1.95;0.63;;;16.60;99.90;;;;;;5035082;28;20025;-70
2022/10/06 03:08:54;;;;;;;4.47;0.82;;;16.60;99.90;;;;;;5035017;28;20029;-70
2022/10/06 03:11:22;;;;;;;3.77;0.80;;;16.60;99.90;;;;;;5017386;28;20022;-70
2022/10/06 03:13:50;;;;;;;3.35;0.60;;;16.50;99.90;;;;;;5017604;28;20044;-70
2022/10/06 03:16:17;;;;;;;1.45;0.30;;;16.50;99.90;;;;;;5017129;28;20107;-70
2022/10/06 03:18:50;;;;;;;2.78;0.80;;;16.60;99.90;;;;;;5017652;28;20029;-70
2022/10/06 03:21:17;;;;;;;2.00;0.70;;;16.50;99.90;;;;;;5017877;28;20116;-70
2022/10/06 03:23:45;;;;;;;1.45;0.85;;;16.50;99.90;;;;;;5016986;28;20025;-70
2022/10/06 03:26:11;;;;;;;2.05;0.60;;;16.50;99.90;;;;;;5034679;28;20115;-70
2022/10/06 03:28:38;;;;;;;1.65;0.65;;;16.50;99.90;;;;;;5016995;28;20025;-70
2022/10/06 03:31:05;;;;;;;0.57;0.40;;;16.50;99.90;;;;;;5034781;28;20023;-70
2022/10/06 03:33:31;;;;;;;4.30;0.63;;;16.50;99.90;;;;;;5016800;28;20026;-70
2022/10/06 03:36:05;;;;;;;1.83;0.50;;;16.50;99.90;;;;;;5017038;28;20030;-70
2022/10/06 03:38:32;;;;;;;2.20;0.77;;;16.50;99.90;;;;;;5034393;28;20048;-70
2022/10/06 03:41:09;;;;;;;2.92;0.60;;;16.50;99.90;;;;;;5023940;28;20093;-70
2022/10/06 03:43:35;;;;;;;4.97;0.77;;;16.40;99.90;;;;;;5034396;28;20026;-70
2022/10/06 03:46:02;;;;;;;4.15;1.08;;;16.50;99.90;;;;;;5034349;28;20100;-70
2022/10/06 03:48:33;;;;;;;3.03;0.80;;;16.50;99.90;;;;;;5016476;28;20025;-70
2022/10/06 03:51:13;;;;;;;1.45;0.57;;;16.40;99.90;;;;;;5016823;28;20022;-70
2022/10/06 03:53:42;;;;;;;2.38;0.43;;;16.40;99.90;;;;;;5017224;28;20025;-70
2022/10/06 03:56:35;;;;;;;1.08;0.57;;;16.40;99.90;;;;;;5016838;28;20029;-70
2022/10/06 03:59:06;;;;;;;3.83;0.80;;;16.40;99.90;;;;;;5016289;28;20023;-70
2022/10/06 04:01:38;;;;;;;3.17;0.90;;;16.40;99.90;;;;;;5017133;28;20022;-70
2022/10/06 04:04:04;;;;;;;2.80;1.00;;;16.40;99.90;;;;;;5033965;28;20029;-70
2022/10/06 04:06:32;;;;;;;6.82;1.25;;;16.30;99.90;;;;;;5016075;28;20022;-70
2022/10/06 04:08:58;;;;;;;2.30;0.88;;;16.30;99.90;;;;;;5016069;28;20029;-70
2022/10/06 04:11:26;;;;;;;4.25;0.80;;;16.30;99.90;;;;;;5016128;28;20021;-70
2022/10/06 04:13:59;;;;;;;12.90;1.00;;;16.20;99.90;;;;;;5016266;28;20068;-72
2022/10/06 04:16:26;;;;;;;2.20;0.60;;;16.10;99.90;;;;;;5016834;28;20041;-71
2022/10/06 04:18:54;;;;;;;3.85;0.70;;;16.00;99.90;;;;;;5034587;28;20034;-71
2022/10/06 04:21:20;;;;;;;2.40;0.90;;;16.10;99.90;;;;;;5016323;28;20033;-71
2022/10/06 04:23:46;;;;;;;2.28;0.85;;;16.00;99.90;;;;;;5034104;28;20030;-71
2022/10/06 04:26:17;;;;;;;5.10;0.98;;;15.90;99.90;;;;;;5017110;28;20032;-71
2022/10/06 04:28:44;;;;;;;4.80;0.95;;;15.70;99.90;;;;;;5016126;28;20610;-72
2022/10/06 04:31:31;;;;;;;1.77;1.27;;;15.80;99.90;;;;;;5033191;28;20112;-72
2022/10/06 04:33:58;;;;;;;3.10;0.60;;;15.80;99.90;;;;;;5034062;28;20021;-71
2022/10/06 04:36:37;;;;;;;6.88;1.30;;;15.60;99.90;;;;;;5016284;28;20036;-72
2022/10/06 04:39:03;;;;;;;5.90;1.40;;;15.50;99.90;;;;;;5016338;28;20049;-71
2022/10/06 04:41:35;;;;;;;2.40;1.20;;;15.50;99.90;;;;;;5033808;28;20396;-71
2022/10/06 04:44:02;;;;;;;3.90;0.80;;;15.50;99.90;;;;;;5016124;28;20022;-71
2022/10/06 04:46:28;;;;;;;5.15;0.80;;;15.50;99.90;;;;;;5023738;28;20042;-71
2022/10/06 04:48:54;;;;;;;5.95;1.00;;;15.50;99.90;;;;;;5035173;28;20030;-71
2022/10/06 04:51:22;;;;;;;3.28;0.98;;;15.60;99.90;;;;;;5035353;28;20029;-71
2022/10/06 04:53:48;;;;;;;2.00;1.17;;;15.60;99.90;;;;;;5018226;28;20051;-68
2022/10/06 04:56:16;;;;;;;6.10;1.25;;;15.60;99.90;;;;;;5033520;28;20021;-68
2022/10/06 04:58:44;;;;;;;5.35;1.10;;;15.60;99.90;;;;;;5035190;28;20049;-70
2022/10/06 05:01:28;;;;;;;6.03;2.35;;;15.50;99.90;;;;;;5033422;28;20021;-70
2022/10/06 05:03:56;;;;;;;4.07;1.70;;;15.50;99.90;;;;;;5033762;28;20065;-70
2022/10/06 05:06:26;;;;;;;7.03;1.75;;;15.50;99.90;;;;;;5017212;28;20026;-70
2022/10/06 05:08:55;;;;;;;7.35;1.55;;;15.50;99.90;;;;;;5033858;28;20042;-70
2022/10/06 05:11:22;;;;;;;3.35;1.55;;;15.50;99.90;;;;;;5015767;28;20071;-71
2022/10/06 05:13:55;;;;;;;5.53;1.58;;;15.50;99.90;;;;;;5015631;28;20040;-70
2022/10/06 05:16:21;;;;;;;5.22;1.60;;;15.40;99.90;;;;;;5034058;28;20017;-70
2022/10/06 05:18:47;;;;;;;2.67;1.10;;;15.40;99.90;;;;;;5033820;28;20075;-70
2022/10/06 05:21:19;;;;;;;5.13;1.55;;;15.30;99.90;;;;;;5015459;28;20065;-70
2022/10/06 05:23:45;;;;;;;12.15;2.30;;;15.20;99.90;;;;;;5033315;28;20026;-70
2022/10/06 05:26:12;;;;;;;9.45;1.70;;;15.10;99.90;;;;;;5015970;28;20025;-70
2022/10/06 05:28:38;;;;;;;6.07;1.50;;;15.20;99.90;;;;;;5019109;28;20029;-70
2022/10/06 05:31:11;;;;;;;5.25;1.77;;;15.20;99.90;;;;;;5028800;28;20404;-70
2022/10/06 05:33:37;;;;;;;4.60;1.90;;;15.10;99.90;;;;;;5015844;28;20065;-70
2022/10/06 05:36:24;;;;;;;11.57;1.70;;;15.10;99.90;;;;;;5033243;28;20025;-70
2022/10/06 05:38:49;;;;;;;7.13;2.08;;;15.20;99.90;;;;;;5033232;28;20037;-70
2022/10/06 05:41:27;;;;;;;6.45;1.88;;;15.20;99.90;;;;;;5015409;28;20022;-70
2022/10/06 05:43:53;;;;;;;5.90;1.75;;;15.10;99.90;;;;;;5019144;28;20035;-70
2022/10/06 05:46:27;;;;;;;4.13;1.73;;;15.10;99.90;;;;;;5019618;28;20022;-70
2022/10/06 05:48:57;;;;;;;7.90;2.10;;;15.10;99.90;;;;;;5020106;28;20025;-70
2022/10/06 05:51:26;;;;;;;14.70;1.90;;;15.10;99.90;;;;;;5026482;28;20044;-71
2022/10/06 05:53:52;;;;;;;11.30;1.90;;;15.00;99.90;;;;;;5036780;28;20074;-71
2022/10/06 05:56:45;;;;;;;4.90;1.88;;;15.00;99.90;;;;;;5036501;28;20117;-70
2022/10/06 05:59:11;;;;;;;7.47;1.90;;;15.00;99.90;;;;;;4999995;28;20037;-70
2022/10/06 06:01:39;;;;;;;6.80;2.13;;;15.00;99.90;;;;;;5018838;28;20029;-70
2022/10/06 06:04:07;;;;;;;9.40;2.20;;;15.00;99.90;;;;;;5036344;28;20116;-70
2022/10/06 06:06:38;;;;;;;9.93;2.05;;;14.90;99.90;;;;;;5018519;28;20022;-70
2022/10/06 06:09:12;;;;;;;10.32;2.30;;;14.90;99.90;;;;;;5036222;28;20052;-70
2022/10/06 06:11:41;;;;;;;13.10;2.72;;;14.90;99.90;;;;;;5018586;28;20133;-68
2022/10/06 06:14:12;;;;;;;8.07;1.98;;;14.90;99.90;;;;;;5036006;28;20101;-68
2022/10/06 06:16:40;;;;;;;7.40;1.85;;;14.90;99.90;;;;;;4999429;28;20083;-68
2022/10/06 06:19:07;;;;;;;6.65;2.53;;;15.00;99.90;;;;;;5031945;28;20072;-69
2022/10/06 06:21:33;;;;;;;6.55;1.70;;;15.00;99.90;;;;;;5036600;28;20468;-68
2022/10/06 06:23:58;;;;;;;10.50;2.42;;;15.00;99.90;;;;;;5019167;28;20053;-68
2022/10/06 06:26:29;;;;;;;4.85;1.85;;;15.10;99.90;;;;;;5019796;28;20053;-68
2022/10/06 06:29:01;;;;;;;9.65;2.42;;;15.10;99.90;;;;;;5018341;28;20029;-69
2022/10/06 06:31:37;;;;;;;6.25;2.00;;;15.10;99.90;;;;;;5035835;28;20025;-69
2022/10/06 06:34:05;;;;;;;11.40;3.33;;;15.10;99.90;;;;;;5017990;28;20064;-68
2022/10/06 06:36:39;;;;;;;8.05;2.05;;;15.10;99.90;;;;;;5018424;28;20029;-68
2022/10/06 06:39:07;;;;;;;4.43;1.88;;;15.10;99.90;;;;;;5035717;28;20021;-68
2022/10/06 06:41:38;;;;;;;8.43;2.15;;;15.10;99.90;;;;;;5036345;28;20056;-68
2022/10/06 06:44:05;;;;;;;8.63;2.22;;;15.10;99.90;;;;;;5037830;28;20021;-68
2022/10/06 06:46:31;;;;;;;6.78;2.20;;;15.10;99.90;;;;;;5018847;28;20025;-68
2022/10/06 06:49:03;;;;;;;16.25;2.40;;;15.10;99.90;;;;;;5017968;28;20076;-68
2022/10/06 06:51:32;;;;;;;;;;;15.00;99.90;;;;;;5036121;28;20025;-68
2022/10/06 06:53:59;;;;;;;9.57;2.03;;;15.00;99.90;;;;;;5018202;28;19909;-69
2022/10/06 06:56:25;;;;;;;6.90;2.13;;;14.90;99.90;;;;;;5020702;28;20026;-68
2022/10/06 06:58:50;;;;;;;7.45;2.03;;;14.80;99.90;;;;;;5024993;28;20041;-68
2022/10/06 07:01:18;;;;;;;9.20;2.17;;;14.80;99.90;;;;;;5032150;28;20033;-68
2022/10/06 07:03:49;;;;;;;11.18;2.28;;;14.80;99.90;;;;;;5035740;28;20080;-68
2022/10/06 07:06:16;;;;;;;9.40;2.33;;;14.80;99.90;;;;;;5017198;28;20029;-69
2022/10/06 07:08:44;;;;;;;11.85;2.17;;;14.80;99.90;;;;;;5035025;28;20030;-68
2022/10/06 07:11:20;;;;;;;7.63;1.60;;;14.80;99.90;;;;;;5017039;28;20021;-69
2022/10/06 07:13:51;;;;;;;9.25;2.40;;;14.80;99.90;;;;;;5017159;28;20515;-68
2022/10/06 07:30:29;;;;;;;12.25;2.22;;;14.70;99.90;;;;;;5031239;28;20041;-73
2022/10/06 07:32:55;;;;;;;9.10;2.17;;;14.80;99.90;;;;;;5030246;28;20071;-74
2022/10/06 07:35:22;;;;;;;8.27;1.73;;;14.90;99.90;;;;;;5017085;28;20053;-73
2022/10/06 07:37:49;;;;;;;14.23;2.03;;;15.00;99.90;;;;;;5034523;28;20022;-74
2022/10/06 07:40:15;;;;;;;11.95;2.70;;;14.90;99.90;;;;;;4997117;28;20075;-73
2022/10/06 07:42:51;;;;;;;15.60;2.10;;;15.00;99.90;;;;;;4997885;28;20037;-74
2022/10/06 07:48:39;;;;;;;27.83;3.42;;;15.10;99.90;;;;;;5014788;28;20084;-74
2022/10/06 07:51:13;;;;;;;10.52;1.75;;;15.00;99.90;;;;;;5014503;28;20108;-73
2022/10/06 07:53:38;;;;;;;9.93;2.22;;;15.10;99.90;;;;;;5014559;28;20029;-73
2022/10/06 07:56:06;;;;;;;11.25;1.98;;;15.10;99.90;;;;;;5014681;28;20022;-73
2022/10/06 07:58:32;;;;;;;13.45;2.10;;;15.10;99.90;;;;;;4997886;28;20136;-73
2022/10/06 08:01:05;;;;;;;12.30;3.15;;;15.00;99.90;;;;;;4996806;28;20026;-73
2022/10/06 08:03:31;;;;;;;9.35;2.28;;;15.10;99.90;;;;;;4996701;28;20022;-74
2022/10/06 08:05:59;;;;;;;12.73;2.03;;;15.20;99.90;;;;;;5013400;28;20018;-72
2022/10/06 08:08:25;;;;;;;11.80;1.88;;;15.30;99.90;;;;;;5014199;28;20033;-73
2022/10/06 08:10:52;;;;;;;9.55;2.08;;;15.40;99.90;;;;;;4996855;28;20022;-73
2022/10/06 08:13:18;;;;;;;6.65;1.92;;;15.40;99.90;;;;;;4996006;28;20034;-73
2022/10/06 08:16:16;;;;;;;9.73;1.73;;;15.50;99.90;;;;;;4991676;28;20038;-73
2022/10/06 08:18:46;;;;;;;11.60;2.10;;;15.60;99.90;;;;;;4976916;28;20386;-73
2022/10/06 08:21:15;;;;;;;13.98;2.25;;;15.60;99.90;;;;;;4993388;28;20026;-73
2022/10/06 08:23:42;;;;;;;7.57;1.52;;;15.80;99.90;;;;;;4994097;28;20030;-73
2022/10/06 08:26:11;;;;;;;11.43;2.75;;;15.90;99.90;;;;;;4992935;28;20473;-73
2022/10/06 08:28:37;;;;;;;8.80;1.85;;;16.00;99.90;;;;;;4976740;28;20117;-73
2022/10/06 08:31:10;;;;;;;14.32;1.92;;;16.10;99.90;;;;;;4988102;28;20018;-73
2022/10/06 08:33:37;;;;;;;11.35;2.08;;;16.10;99.90;;;;;;4996189;28;20113;-73
2022/10/06 08:36:07;;;;;;;14.98;2.42;;;16.10;99.90;;;;;;5013641;28;20026;-73
2022/10/06 08:38:34;;;;;;;7.93;1.65;;;16.10;99.90;;;;;;5012335;28;20033;-73
2022/10/06 08:41:00;;;;;;;9.75;1.95;;;16.20;99.90;;;;;;5012593;28;20069;-73
2022/10/06 08:43:27;;;;;;;9.55;1.65;;;16.10;99.90;;;;;;5013498;28;20053;-73
2022/10/06 08:45:58;;;;;;;7.25;1.92;;;16.20;99.90;;;;;;4996092;28;20022;-73
2022/10/06 08:48:28;;;;;;;7.68;1.38;;;16.30;99.90;;;;;;4996449;28;20022;-73
2022/10/06 08:51:06;;;;;;;6.25;1.55;;;16.40;99.90;;;;;;5013291;28;20030;-73
2022/10/06 08:53:38;;;;;;;8.77;1.50;;;16.40;99.90;;;;;;4995784;28;20117;-73
2022/10/06 08:56:19;;;;;;;11.32;1.95;;;16.40;99.90;;;;;;5013403;28;20025;-73
2022/10/06 08:58:53;;;;;;;6.22;1.60;;;16.30;99.90;;;;;;4996033;28;20095;-73
2022/10/06 09:01:22;;;;;;;16.98;1.85;;;16.20;99.90;;;;;;5013502;28;20030;-74
2022/10/06 09:03:51;;;;;;;7.28;1.73;;;16.30;99.90;;;;;;4995631;28;20034;-73
2022/10/06 09:10:15;;;;;;;5.18;1.27;;;16.40;99.90;;;;;;4999330;28;20057;-73
2022/10/06 09:12:43;;;;;;;;;;;16.50;99.90;;;;;;4996452;28;20026;-73
2022/10/06 09:15:45;;;;;;;6.78;2.08;;;16.50;99.90;;;;;;4995691;28;19956;-73
2022/10/06 09:18:27;;;;;;;;;;;16.60;99.90;;;;;;4995031;28;20041;-73
2022/10/06 09:21:00;;;;;;;13.68;2.08;;;16.60;99.90;;;;;;4999604;28;19905;-73
2022/10/06 09:23:48;;;;;;;11.48;1.33;;;16.60;99.90;;;;;;4999441;28;20038;-73
2022/10/06 09:26:21;;;;;;;13.40;1.85;;;16.70;99.90;;;;;;5017053;28;20018;-73
2022/10/06 09:28:47;;;;;;;6.13;1.52;;;16.80;99.90;;;;;;4999482;28;20037;-73
2022/10/06 09:31:30;;;;;;;8.43;1.92;;;16.90;99.90;;;;;;4999648;28;20026;-73
2022/10/06 09:34:18;;;;;;;11.30;1.50;;;16.80;99.90;;;;;;4999698;28;20029;-73
2022/10/06 09:37:06;;;;;;;10.07;2.03;;;16.80;99.90;;;;;;5016852;28;20044;-73
2022/10/06 09:39:35;;;;;;;13.30;2.25;;;16.80;99.90;;;;;;5016792;28;20067;-73
2022/10/06 09:42:08;;;;;;;8.77;1.50;;;16.80;99.90;;;;;;4999489;28;20034;-73
2022/10/06 09:44:59;;;;;;;5.75;1.27;;;17.00;99.90;;;;;;4998979;28;20026;-73
2022/10/06 09:47:30;;;;;;;8.63;1.17;;;17.10;99.90;;;;;;4956037;28;20117;-73
2022/10/06 09:50:22;;;;;;;16.10;2.13;;;17.10;99.90;;;;;;4999375;28;20347;-73
2022/10/06 09:52:56;;;;;;;8.70;2.53;;;17.10;99.90;;;;;;4998975;28;20087;-73
2022/10/06 09:55:56;;;;;;;8.15;1.80;;;17.30;99.90;;;;;;5015968;28;20030;-73
2022/10/06 09:58:36;;;;;;;8.13;1.27;;;17.40;99.90;;;;;;4998690;28;20409;-73
2022/10/06 10:01:11;;;;;;;8.10;1.52;;;17.50;99.90;;;;;;4998752;28;20477;-73
2022/10/06 10:03:50;;;;;;;6.75;1.48;;;17.70;99.90;;;;;;4999259;28;20029;-73
2022/10/06 10:06:30;;;;;;;5.28;1.13;;;17.70;99.90;;;;;;4998582;28;20118;-73
2022/10/06 10:09:20;;;;;;;6.50;1.50;;;17.70;99.90;;;;;;5015861;28;20028;-73
2022/10/06 10:14:55;;;;;;;10.88;1.40;;;17.60;99.90;;;;;;5017825;28;20408;-73
2022/10/06 10:17:31;;;;;;;12.75;1.77;;;17.70;99.90;;;;;;5015972;28;20034;-73
2022/10/06 10:19:58;;;;;;;7.57;1.67;;;17.70;99.90;;;;;;4998916;28;20053;-73
2022/10/06 10:22:36;;;;;;;6.53;1.40;;;17.80;99.90;;;;;;5016000;28;20044;-73
2022/10/06 10:25:35;;;;;;;7.53;1.13;;;18.00;99.90;;;;;;4998764;28;20488;-73
2022/10/06 10:28:14;;;;;;;5.90;1.35;;;18.30;99.90;;;;;;4998086;28;20018;-73
2022/10/06 10:30:53;;;;;;;7.82;1.67;;;18.60;99.90;;;;;;4997604;28;20034;-73
2022/10/06 10:33:33;;;;;;;8.45;1.40;;;18.80;99.90;;;;;;5015919;28;20032;-73
2022/10/06 10:36:01;;;;;;;8.00;1.35;;;18.80;99.90;;;;;;4998571;28;20117;-73
2022/10/06 10:38:28;;;;;;;12.38;2.05;;;18.90;99.90;;;;;;4998153;28;20033;-73
2022/10/06 10:41:03;;;;;;;4.60;1.23;;;19.00;99.90;;;;;;4998520;28;20091;-73
2022/10/06 10:43:39;;;;;;;5.57;1.58;;;19.10;99.90;;;;;;5015715;28;20036;-73
2022/10/06 10:46:43;;;;;;;4.93;1.20;;;19.20;99.90;;;;;;5015521;28;20021;-73
2022/10/06 10:49:16;;;;;;;7.57;1.80;;;19.30;99.90;;;;;;4916983;29;20036;-72
2022/10/06 10:51:57;;;;;;;8.77;1.55;;;19.50;99.90;;;;;;4916764;29;20145;-73
2022/10/06 10:54:45;;;;;;;6.97;1.23;;;19.60;99.90;;;;;;4901173;29;20028;-73
2022/10/06 10:57:20;;;;;;;7.93;1.20;;;19.60;99.90;;;;;;4917015;29;20067;-73
2022/10/06 10:59:58;;;;;;;6.72;1.88;;;19.60;99.90;;;;;;4917085;29;20044;-73
2022/10/06 11:02:50;;;;;;;9.93;1.45;;;19.80;99.90;;;;;;4916640;29;20118;-73
2022/10/06 11:05:48;;;;;;;12.35;1.52;;;19.90;99.90;;;;;;4901196;29;20039;-72
2022/10/06 11:08:27;;;;;;;5.88;1.23;;;20.00;99.90;;;;;;4900974;29;20519;-73
2022/10/06 11:10:58;;;;;;;7.85;1.42;;;19.90;99.90;;;;;;4901589;29;20024;-73
2022/10/06 11:13:39;;;;;;;9.20;1.55;;;19.90;99.90;;;;;;4916771;29;20186;-73
2022/10/06 11:16:17;;;;;;;8.88;1.27;;;19.90;99.90;;;;;;4901056;29;20415;-73
2022/10/06 11:19:13;;;;;;;7.88;1.45;;;20.10;99.90;;;;;;4916891;29;20036;-73
2022/10/06 11:21:57;;;;;;;5.85;1.15;;;20.30;99.90;;;;;;4900926;29;20115;-73
2022/10/06 11:25:12;;;;;;;7.20;1.42;;;20.60;99.90;;;;;;4908664;28;20028;-73
2022/10/06 11:28:00;;;;;;;10.93;1.65;;;20.70;99.90;;;;;;5014994;28;20042;-73
2022/10/06 11:30:28;;;;;;;8.98;1.58;;;20.70;99.90;;;;;;4997334;28;20036;-72
2022/10/06 11:33:00;;;;;;;7.25;1.90;;;20.80;99.90;;;;;;5014966;28;20026;-72
2022/10/06 11:35:34;;;;;;;5.95;1.58;;;21.00;99.90;;;;;;4997370;28;20030;-72
2022/10/06 11:38:23;;;;;;;5.05;1.27;;;21.20;98.50;;;;;;5014797;28;20021;-72
2022/10/06 11:40:54;;;;;;;5.45;1.25;;;21.00;99.40;;;;;;4997974;28;20069;-72
2022/10/06 11:43:34;;;;;;;11.43;2.10;;;21.00;99.10;;;;;;4997123;28;20026;-72
2022/10/06 11:46:23;;;;;;;6.00;1.13;;;21.10;99.10;;;;;;5014965;28;20046;-72
2022/10/06 11:48:49;;;;;;;9.35;1.58;;;21.40;98.50;;;;;;4997657;28;20033;-72
2022/10/06 11:51:23;;;;;;;7.97;1.20;;;21.60;96.90;;;;;;4997048;28;20022;-72
2022/10/06 11:53:54;;;;;;;5.85;1.13;;;21.60;96.30;;;;;;4997025;28;20026;-72
2022/10/06 11:56:19;;;;;;;5.13;1.08;;;21.70;97.00;;;;;;4997032;28;20033;-72
2022/10/06 11:58:54;;;;;;;6.63;1.42;;;21.80;96.30;;;;;;5014387;28;20030;-72
2022/10/06 12:01:37;;;;;;;11.05;1.40;;;21.70;96.80;;;;;;5014687;28;20026;-72
2022/10/06 12:04:09;;;;;;;6.32;1.23;;;22.10;95.90;;;;;;5014384;28;20101;-71
2022/10/06 12:10:26;;;;;;;6.90;1.05;;;22.40;95.70;;;;;;5014092;28;20025;-72
2022/10/06 12:13:15;;;;;;;5.60;1.50;;;22.60;94.00;;;;;;5013857;28;20026;-72
2022/10/06 12:15:50;;;;;;;2.83;1.08;;;22.60;93.10;;;;;;4981890;28;20121;-72
2022/10/06 12:18:27;;;;;;;5.38;1.23;;;22.20;94.40;;;;;;4996159;28;20049;-72
2022/10/06 12:21:27;;;;;;;5.85;1.10;;;22.60;92.50;;;;;;5012499;28;20456;-72
2022/10/06 12:23:59;;;;;;;3.97;1.15;;;22.60;92.00;;;;;;5008462;28;20034;-72
2022/10/06 12:26:50;;;;;;;5.72;1.60;;;22.60;92.10;;;;;;4996790;28;20103;-71
2022/10/06 12:29:44;;;;;;;5.18;1.42;;;22.80;91.50;;;;;;4998889;28;20034;-72
2022/10/06 12:35:34;;;;;;;12.35;1.80;;;23.20;92.20;;;;;;5010087;28;20057;-72
2022/10/06 12:38:04;;;;;;;13.75;1.95;;;23.20;91.20;;;;;;5013605;28;20446;-72
2022/10/06 12:40:51;;;;;;;10.25;1.50;;;23.50;90.80;;;;;;5013687;28;20093;-72
2022/10/06 12:43:59;;;;;;;9.30;2.10;;;23.60;91.10;;;;;;4995693;28;20408;-72
2022/10/06 12:46:33;;;;;;;10.82;1.25;;;22.80;91.80;;;;;;5013470;28;20049;-72
2022/10/06 12:49:07;;;;;;;10.02;1.70;;;23.10;90.90;;;;;;5013395;28;20026;-72
2022/10/06 12:51:42;;;;;;;5.00;1.35;;;23.40;88.60;;;;;;4995599;28;20033;-72
2022/10/06 12:54:27;;;;;;;10.43;1.63;;;23.90;87.60;;;;;;5013271;28;20026;-72
2022/10/06 12:56:58;;;;;;;5.78;1.13;;;23.80;88.10;;;;;;5013534;28;20477;-72
2022/10/06 12:59:30;;;;;;;8.23;1.08;;;24.00;88.90;;;;;;5010094;28;20034;-72
2022/10/06 13:02:15;;;;;;;7.70;2.10;;;24.50;86.00;;;;;;4993948;28;20030;-72
2022/10/06 13:04:50;;;;;;;8.88;1.65;;;24.80;85.90;;;;;;4983004;28;20026;-72
2022/10/06 13:07:25;;;;;;;6.40;1.40;;;24.80;84.70;;;;;;4995645;28;20041;-72
2022/10/06 13:10:16;;;;;;;8.32;1.20;;;25.00;83.20;;;;;;4996124;28;20068;-72
2022/10/06 13:13:22;;;;;;;8.80;1.40;;;25.30;82.10;;;;;;5002615;28;20037;-72
2022/10/06 13:15:49;;;;;;;8.10;1.67;;;25.40;79.80;;;;;;4996126;28;20033;-72
2022/10/06 13:18:18;;;;;;;8.75;1.85;;;25.50;78.70;;;;;;4995820;28;20121;-72
2022/10/06 13:20:54;;;;;;;10.63;1.77;;;25.30;79.40;;;;;;5013055;28;20030;-72
2022/10/06 13:23:25;;;;;;;7.55;1.63;;;25.40;79.70;;;;;;4996166;28;20096;-72
2022/10/06 13:25:59;;;;;;;7.00;1.55;;;25.50;80.60;;;;;;5013258;28;20022;-72
2022/10/06 13:28:43;;;;;;;11.25;1.83;;;25.80;78.50;;;;;;5012845;28;20040;-72
2022/10/06 13:31:26;;;;;;;5.68;1.38;;;25.90;77.60;;;;;;4995477;28;20026;-72
2022/10/06 13:34:05;;;;;;;4.88;1.25;;;26.00;78.10;;;;;;4995629;28;20489;-72
2022/10/06 13:36:40;;;;;;;6.00;1.45;;;26.30;76.00;;;;;;4995803;28;20025;-72
2022/10/06 13:39:15;;;;;;;6.97;1.30;;;26.50;75.60;;;;;;4995756;28;20382;-72
2022/10/06 13:41:49;;;;;;;8.02;1.88;;;26.70;74.80;;;;;;5013437;28;20034;-72
2022/10/06 13:44:26;;;;;;;9.07;1.50;;;26.50;74.80;;;;;;4995347;28;20518;-72